createdAt,value
2018-08-07T00:00:13.560Z,11.30
2018-08-07T00:02:42.481Z,11.53
2018-08-07T00:05:11.385Z,11.47
2018-08-07T00:07:40.257Z,11.20
2018-08-07T00:10:12.503Z,11.37
2018-08-07T00:12:41.364Z,10.47
2018-08-07T00:15:11.447Z,10.57
2018-08-07T00:17:40.412Z,10.67
2018-08-07T00:20:10.954Z,11.60
2018-08-07T00:22:39.844Z,11.90
2018-08-07T00:25:09.861Z,11.77
2018-08-07T00:27:39.172Z,13.20
2018-08-07T00:30:10.033Z,11.67
2018-08-07T00:32:39.059Z,12.30
2018-08-07T00:35:12.400Z,11.13
2018-08-07T00:37:41.796Z,11.47
2018-08-07T00:40:12.935Z,11.67
2018-08-07T00:42:42.565Z,12.27
2018-08-07T00:45:18.452Z,12.00
2018-08-07T00:47:47.429Z,11.30
2018-08-07T00:50:17.917Z,11.93
2018-08-07T00:52:47.428Z,11.60
2018-08-07T00:55:17.219Z,10.50
2018-08-07T00:57:46.661Z,12.00
2018-08-07T01:00:15.708Z,11.23
2018-08-07T01:02:44.581Z,12.00
2018-08-07T01:05:15.066Z,11.67
2018-08-07T01:07:43.988Z,10.37
2018-08-07T01:10:14.500Z,11.73
2018-08-07T01:12:43.436Z,12.90
2018-08-07T01:15:14.629Z,12.10
2018-08-07T01:17:44.031Z,12.00
2018-08-07T01:20:15.914Z,12.70
2018-08-07T01:22:45.139Z,12.37
2018-08-07T01:25:21.148Z,12.43
2018-08-07T01:27:50.065Z,11.60
2018-08-07T01:30:24.764Z,11.60
2018-08-07T01:32:54.295Z,12.27
2018-08-07T01:35:23.479Z,12.10
2018-08-07T01:37:52.352Z,12.90
2018-08-07T01:40:21.205Z,12.17
2018-08-07T01:42:50.105Z,12.30
2018-08-07T01:45:18.984Z,13.67
2018-08-07T01:47:47.652Z,12.70
2018-08-07T01:50:16.608Z,13.10
2018-08-07T01:52:45.484Z,13.00
2018-08-07T01:55:26.487Z,11.80
2018-08-07T01:57:55.380Z,12.17
2018-08-07T02:00:24.252Z,12.40
2018-08-07T02:02:53.231Z,11.87
2018-08-07T02:05:22.088Z,10.57
2018-08-07T02:07:50.956Z,11.93
2018-08-07T02:10:20.024Z,11.33
2018-08-07T02:12:48.921Z,11.57
2018-08-07T02:15:17.846Z,11.60
2018-08-07T02:17:46.708Z,12.27
2018-08-07T02:20:16.493Z,12.13
2018-08-07T02:22:45.910Z,11.43
2018-08-07T02:25:21.280Z,12.23
2018-08-07T02:27:50.165Z,10.97
2018-08-07T02:30:19.257Z,12.40
2018-08-07T02:32:48.109Z,11.90
2018-08-07T02:35:17.541Z,11.50
2018-08-07T02:37:47.198Z,11.80
2018-08-07T02:40:16.672Z,12.70
2018-08-07T02:42:45.715Z,12.77
2018-08-07T02:45:16.188Z,12.77
2018-08-07T02:47:45.492Z,11.77
2018-08-07T02:50:16.161Z,12.07
2018-08-07T02:52:45.192Z,11.13
2018-08-07T02:55:14.088Z,12.10
2018-08-07T02:57:43.599Z,11.27
2018-08-07T03:00:14.340Z,12.70
2018-08-07T03:02:43.262Z,11.80
2018-08-07T03:05:12.109Z,13.13
2018-08-07T03:07:41.059Z,12.67
2018-08-07T03:10:10.532Z,12.50
2018-08-07T03:12:39.493Z,12.63
2018-08-07T03:15:11.938Z,13.57
2018-08-07T03:17:41.094Z,13.03
2018-08-07T03:20:10.040Z,12.80
2018-08-07T03:22:38.924Z,14.10
2018-08-07T03:25:09.209Z,15.27
2018-08-07T03:27:38.060Z,16.03
2018-08-07T03:30:09.332Z,16.43
2018-08-07T03:32:38.233Z,16.90
2018-08-07T03:35:07.261Z,16.40
2018-08-07T03:37:36.788Z,16.90
2018-08-07T03:40:09.034Z,14.27
2018-08-07T03:42:38.001Z,13.93
2018-08-07T03:45:08.241Z,14.43
2018-08-07T03:47:37.187Z,15.20
2018-08-07T03:50:06.753Z,13.57
2018-08-07T03:52:35.683Z,13.63
2018-08-07T03:55:06.796Z,15.70
2018-08-07T03:57:35.837Z,14.20
2018-08-07T04:00:07.751Z,14.67
2018-08-07T04:02:36.612Z,13.37
2018-08-07T04:05:05.848Z,13.87
2018-08-07T04:07:34.975Z,14.00
2018-08-07T04:10:04.638Z,15.10
2018-08-07T04:12:33.511Z,15.43
2018-08-07T04:15:02.375Z,14.00
2018-08-07T04:17:31.324Z,14.30
2018-08-07T04:19:59.979Z,13.93
2018-08-07T04:22:28.744Z,14.17
2018-08-07T04:24:57.647Z,14.00
2018-08-07T04:27:26.504Z,13.70
2018-08-07T04:29:55.365Z,12.57
2018-08-07T04:32:24.425Z,13.33
2018-08-07T04:34:53.316Z,13.33
2018-08-07T04:37:22.164Z,12.00
2018-08-07T04:39:51.052Z,11.70
2018-08-07T04:42:19.917Z,12.70
2018-08-07T04:44:48.784Z,11.90
2018-08-07T04:47:17.631Z,11.27
2018-08-07T04:49:46.505Z,10.77
2018-08-07T04:52:15.378Z,11.10
2018-08-07T04:54:44.246Z,11.40
2018-08-07T04:57:13.156Z,10.90
2018-08-07T04:59:42.001Z,11.63
2018-08-07T05:02:10.880Z,12.50
2018-08-07T05:04:39.732Z,12.37
2018-08-07T05:07:08.613Z,11.33
2018-08-07T05:09:37.515Z,11.90
2018-08-07T05:12:06.760Z,11.70
2018-08-07T05:14:35.887Z,11.63
2018-08-07T05:17:04.748Z,13.20
2018-08-07T05:19:33.597Z,12.23
2018-08-07T05:22:02.459Z,10.63
2018-08-07T05:24:31.311Z,10.57
2018-08-07T05:27:00.180Z,10.80
2018-08-07T05:29:29.055Z,11.17
2018-08-07T05:31:57.914Z,9.53
2018-08-07T05:34:26.757Z,9.60
2018-08-07T05:36:55.644Z,10.60
2018-08-07T05:39:24.517Z,9.60
2018-08-07T05:41:53.392Z,10.70
2018-08-07T05:44:22.281Z,9.67
2018-08-07T05:46:51.121Z,9.27
2018-08-07T05:49:20.002Z,8.60
2018-08-07T05:51:48.840Z,8.73
2018-08-07T05:54:17.706Z,9.20
2018-08-07T05:56:46.584Z,9.07
2018-08-07T05:59:15.521Z,7.60
2018-08-07T06:01:44.384Z,8.23
2018-08-07T06:04:13.232Z,9.60
2018-08-07T06:06:42.141Z,8.07
2018-08-07T06:09:11.000Z,8.10
2018-08-07T06:11:39.882Z,8.00
2018-08-07T06:14:08.732Z,8.17
2018-08-07T06:16:37.683Z,7.97
2018-08-07T06:19:06.570Z,8.80
2018-08-07T06:21:35.371Z,7.80
2018-08-07T06:24:04.239Z,8.40
2018-08-07T06:26:33.079Z,8.13
2018-08-07T06:29:01.962Z,8.20
2018-08-07T06:31:30.877Z,8.10
2018-08-07T06:34:00.085Z,8.23
2018-08-07T06:36:28.972Z,8.37
2018-08-07T06:38:57.798Z,8.77
2018-08-07T06:41:26.671Z,8.37
2018-08-07T06:43:55.545Z,8.20
2018-08-07T06:46:24.424Z,9.20
2018-08-07T06:48:53.748Z,9.10
2018-08-07T06:51:22.616Z,9.27
2018-08-07T06:53:51.469Z,7.67
2018-08-07T06:56:20.353Z,8.90
2018-08-07T06:58:49.222Z,8.33
2018-08-07T07:01:18.157Z,8.80
2018-08-07T07:03:46.779Z,8.50
2018-08-07T07:06:15.528Z,8.87
2018-08-07T07:08:44.405Z,8.40
2018-08-07T07:11:13.249Z,8.07
2018-08-07T07:13:42.152Z,8.50
2018-08-07T07:16:11.047Z,8.07
2018-08-07T07:18:39.924Z,7.87
2018-08-07T07:21:09.022Z,8.27
2018-08-07T07:23:37.869Z,8.30
2018-08-07T07:26:06.508Z,8.27
2018-08-07T07:28:35.256Z,7.73
2018-08-07T07:31:04.127Z,8.07
2018-08-07T07:33:33.116Z,7.70
2018-08-07T07:36:01.976Z,8.10
2018-08-07T07:38:30.856Z,7.80
2018-08-07T07:40:59.738Z,7.80
2018-08-07T07:43:28.672Z,8.50
2018-08-07T07:45:57.517Z,7.83
2018-08-07T07:48:26.397Z,8.63
2018-08-07T07:50:55.256Z,8.23
2018-08-07T07:53:24.108Z,9.23
2018-08-07T07:55:52.975Z,9.77
2018-08-07T07:58:21.833Z,8.50
2018-08-07T08:00:50.808Z,8.00
2018-08-07T08:03:19.745Z,9.00
2018-08-07T08:05:48.609Z,8.07
2018-08-07T08:08:17.525Z,8.50
2018-08-07T08:10:52.559Z,8.70
2018-08-07T08:13:32.844Z,9.23
2018-08-07T08:16:07.230Z,8.77
2018-08-07T08:18:48.602Z,7.80
2018-08-07T08:21:19.380Z,9.20
2018-08-07T08:23:48.209Z,8.27
2018-08-07T08:26:17.097Z,8.60
2018-08-07T08:28:45.928Z,8.60
2018-08-07T08:31:14.828Z,9.73
2018-08-07T08:33:43.695Z,9.93
2018-08-07T08:36:16.764Z,10.20
2018-08-07T08:38:56.169Z,11.30
2018-08-07T08:41:29.933Z,9.63
2018-08-07T08:43:58.824Z,9.20
2018-08-07T08:46:27.686Z,9.87
2018-08-07T08:48:56.682Z,9.43
2018-08-07T08:51:25.502Z,9.20
2018-08-07T08:53:54.386Z,8.50
2018-08-07T08:56:23.038Z,9.03
2018-08-07T08:58:54.630Z,8.53
2018-08-07T09:01:23.492Z,7.50
2018-08-07T09:03:52.369Z,7.63
2018-08-07T09:06:21.303Z,7.80
2018-08-07T09:08:50.201Z,7.40
2018-08-07T09:11:19.089Z,8.70
2018-08-07T09:13:47.952Z,8.90
2018-08-07T09:16:16.818Z,8.43
2018-08-07T09:18:45.700Z,8.83
2018-08-07T09:21:14.584Z,9.70
2018-08-07T09:23:43.470Z,7.80
2018-08-07T09:26:12.453Z,9.00
2018-08-07T09:28:41.240Z,8.30
2018-08-07T09:31:10.137Z,8.97
2018-08-07T09:33:38.993Z,9.20
2018-08-07T09:36:07.869Z,8.37
2018-08-07T09:38:36.745Z,8.43
2018-08-07T09:41:05.609Z,7.77
2018-08-07T09:43:34.500Z,8.57
2018-08-07T09:46:03.360Z,7.83
2018-08-07T09:48:32.208Z,8.50
2018-08-07T09:51:01.113Z,7.83
2018-08-07T09:53:29.983Z,7.80
2018-08-07T09:55:58.833Z,7.20
2018-08-07T09:58:27.710Z,7.13
2018-08-07T10:01:02.103Z,7.20
2018-08-07T10:03:31.005Z,7.20
2018-08-07T10:05:59.897Z,7.53
2018-08-07T10:08:28.776Z,6.97
2018-08-07T10:10:57.676Z,6.50
2018-08-07T10:13:26.533Z,6.80
2018-08-07T10:15:55.385Z,6.40
2018-08-07T10:18:24.336Z,6.57
2018-08-07T10:20:53.179Z,6.73
2018-08-07T10:23:22.042Z,6.43
2018-08-07T10:25:50.888Z,7.83
2018-08-07T10:28:19.744Z,6.83
2018-08-07T10:30:48.619Z,7.03
2018-08-07T10:33:17.251Z,7.30
2018-08-07T10:35:45.986Z,7.47
2018-08-07T10:38:14.617Z,8.40
2018-08-07T10:40:43.428Z,8.10
2018-08-07T10:43:12.345Z,7.10
2018-08-07T10:45:41.095Z,7.60
2018-08-07T10:48:10.003Z,6.47
2018-08-07T10:50:38.893Z,6.03
2018-08-07T10:53:07.795Z,6.53
2018-08-07T10:55:36.624Z,6.27
2018-08-07T10:58:05.479Z,6.83
2018-08-07T11:00:34.729Z,6.13
2018-08-07T11:03:04.116Z,6.67
2018-08-07T11:05:32.994Z,5.77
2018-08-07T11:08:01.684Z,6.67
2018-08-07T11:10:30.458Z,6.60
2018-08-07T11:12:59.367Z,6.57
2018-08-07T11:15:29.630Z,6.03
2018-08-07T11:17:59.019Z,6.43
2018-08-07T11:20:27.917Z,6.90
2018-08-07T11:22:58.040Z,6.60
2018-08-07T11:25:27.891Z,6.20
2018-08-07T11:27:56.788Z,5.40
2018-08-07T11:30:26.751Z,6.80
2018-08-07T11:32:56.771Z,5.90
2018-08-07T11:35:26.053Z,6.47
2018-08-07T11:37:56.405Z,6.47
2018-08-07T11:40:25.945Z,5.60
2018-08-07T11:42:55.514Z,5.67
2018-08-07T11:45:26.112Z,4.97
2018-08-07T11:47:55.034Z,5.07
2018-08-07T11:50:25.176Z,6.93
2018-08-07T11:52:54.044Z,5.30
2018-08-07T11:55:23.705Z,5.33
2018-08-07T11:57:52.864Z,5.90
2018-08-07T12:00:25.014Z,5.00
2018-08-07T12:02:53.854Z,5.20
2018-08-07T12:05:23.012Z,6.00
2018-08-07T12:07:51.914Z,4.73
2018-08-07T12:10:21.211Z,5.33
2018-08-07T12:12:50.070Z,5.23
2018-08-07T12:15:20.406Z,5.10
2018-08-07T12:17:49.409Z,5.20
2018-08-07T12:20:18.260Z,5.60
2018-08-07T12:22:47.132Z,6.00
2018-08-07T12:25:16.811Z,5.40
2018-08-07T12:27:45.832Z,5.20
2018-08-07T12:30:20.144Z,5.27
2018-08-07T12:32:49.098Z,4.83
2018-08-07T12:35:17.992Z,4.90
2018-08-07T12:37:46.865Z,3.70
2018-08-07T12:40:20.073Z,4.50
2018-08-07T12:42:49.478Z,3.50
2018-08-07T12:45:18.494Z,4.47
2018-08-07T12:47:47.963Z,4.60
2018-08-07T12:50:17.604Z,4.87
2018-08-07T12:52:46.456Z,4.33
2018-08-07T12:55:18.968Z,4.47
2018-08-07T12:57:48.137Z,3.40
2018-08-07T13:00:19.608Z,4.10
2018-08-07T13:02:48.484Z,3.90
2018-08-07T13:05:17.471Z,4.60
2018-08-07T13:07:46.348Z,4.53
2018-08-07T13:10:18.348Z,4.13
2018-08-07T13:12:47.617Z,4.30
2018-08-07T13:15:17.864Z,5.77
2018-08-07T13:17:47.166Z,4.67
2018-08-07T13:20:16.068Z,4.87
2018-08-07T13:22:45.585Z,4.63
2018-08-07T13:25:16.587Z,5.07
2018-08-07T13:27:45.476Z,4.90
2018-08-07T13:30:19.832Z,4.57
2018-08-07T13:32:48.699Z,5.00
2018-08-07T13:35:17.760Z,6.20
2018-08-07T13:37:47.935Z,5.83
2018-08-07T13:40:18.975Z,6.07
2018-08-07T13:42:47.885Z,6.37
2018-08-07T13:45:18.396Z,6.10
2018-08-07T13:47:47.266Z,6.57
2018-08-07T13:50:18.429Z,5.90
2018-08-07T13:52:47.732Z,5.67
2018-08-07T13:55:17.420Z,5.70
2018-08-07T13:57:46.893Z,5.63
2018-08-07T14:00:22.554Z,6.13
2018-08-07T14:02:52.247Z,5.87
2018-08-07T14:05:21.820Z,6.40
2018-08-07T14:07:51.580Z,5.73
2018-08-07T14:10:21.710Z,6.33
2018-08-07T14:12:50.674Z,6.13
2018-08-07T14:15:20.127Z,5.53
2018-08-07T14:17:50.140Z,5.60
2018-08-07T14:20:19.445Z,5.60
2018-08-07T14:22:48.594Z,5.30
2018-08-07T14:25:25.816Z,5.93
2018-08-07T14:27:54.838Z,6.67
2018-08-07T14:30:29.060Z,6.10
2018-08-07T14:32:59.514Z,5.80
2018-08-07T14:35:28.411Z,5.03
2018-08-07T14:37:57.293Z,5.07
2018-08-07T14:40:27.300Z,5.40
2018-08-07T14:42:56.593Z,5.90
2018-08-07T14:45:27.919Z,4.80
2018-08-07T14:47:57.358Z,5.33
2018-08-07T14:50:27.896Z,5.27
2018-08-07T14:52:56.840Z,5.30
2018-08-07T14:55:26.063Z,5.20
2018-08-07T14:57:55.133Z,4.87
2018-08-07T15:00:27.432Z,5.43
2018-08-07T15:02:56.458Z,5.13
2018-08-07T15:05:25.292Z,5.13
2018-08-07T15:07:54.157Z,5.20
2018-08-07T15:10:24.184Z,4.40
2018-08-07T15:12:52.944Z,4.10
2018-08-07T15:15:25.809Z,4.50
2018-08-07T15:17:54.751Z,4.30
2018-08-07T15:20:25.330Z,4.60
2018-08-07T15:22:54.788Z,4.67
2018-08-07T15:25:24.134Z,4.67
2018-08-07T15:27:53.044Z,4.50
2018-08-07T15:30:24.123Z,4.70
2018-08-07T15:32:53.177Z,4.30
2018-08-07T15:35:23.562Z,4.23
2018-08-07T15:37:52.382Z,4.77
2018-08-07T15:40:21.660Z,4.70
2018-08-07T15:42:50.565Z,4.73
2018-08-07T15:45:21.895Z,4.17
2018-08-07T15:47:50.731Z,4.20
2018-08-07T15:50:20.382Z,4.03
2018-08-07T15:52:50.604Z,3.57
2018-08-07T15:55:21.250Z,4.10
2018-08-07T15:57:50.189Z,4.20
2018-08-07T16:00:29.184Z,3.40
2018-08-07T16:03:00.546Z,4.13
2018-08-07T16:05:29.536Z,3.97
2018-08-07T16:07:58.493Z,2.73
2018-08-07T16:10:27.341Z,3.37
2018-08-07T16:12:56.237Z,3.40
2018-08-07T16:15:25.132Z,3.60
2018-08-07T16:17:54.460Z,3.37
2018-08-07T16:20:23.628Z,3.47
2018-08-07T16:22:52.489Z,2.67
2018-08-07T16:25:21.876Z,2.80
2018-08-07T16:27:51.031Z,3.30
2018-08-07T16:30:22.417Z,2.90
2018-08-07T16:32:51.255Z,3.07
2018-08-07T16:35:20.174Z,2.90
2018-08-07T16:37:49.452Z,2.90
2018-08-07T16:40:20.009Z,2.23
2018-08-07T16:42:52.413Z,2.60
2018-08-07T16:48:39.067Z,2.27
2018-08-07T16:51:36.782Z,3.13
2018-08-07T16:57:30.709Z,2.90
2018-08-07T17:00:21.715Z,3.73
2018-08-07T17:03:11.698Z,4.10
2018-08-07T17:08:50.179Z,4.43
2018-08-07T17:11:19.791Z,4.13
2018-08-07T17:16:25.544Z,3.40
2018-08-07T17:18:54.504Z,3.60
2018-08-07T17:21:23.408Z,3.67
2018-08-07T17:23:52.296Z,3.90
2018-08-07T17:26:21.230Z,4.10
2018-08-07T17:28:50.608Z,4.00
2018-08-07T17:31:20.957Z,4.00
2018-08-07T17:33:50.279Z,4.03
2018-08-07T17:36:19.153Z,4.83
2018-08-07T17:38:48.077Z,4.33
2018-08-07T17:41:17.049Z,5.40
2018-08-07T17:43:46.209Z,5.20
2018-08-07T17:46:15.117Z,5.07
2018-08-07T17:48:44.025Z,5.03
2018-08-07T17:51:12.875Z,4.87
2018-08-07T17:53:41.795Z,4.77
2018-08-07T17:56:10.664Z,5.60
2018-08-07T17:58:39.597Z,4.93
2018-08-07T18:01:08.452Z,4.50
2018-08-07T18:03:37.311Z,4.87
2018-08-07T18:06:06.853Z,4.30
2018-08-07T18:08:35.863Z,4.77
2018-08-07T18:11:04.717Z,5.70
2018-08-07T18:13:33.811Z,5.20
2018-08-07T18:16:02.680Z,4.73
2018-08-07T18:18:31.533Z,4.37
2018-08-07T18:21:00.420Z,4.70
2018-08-07T18:23:29.468Z,4.57
2018-08-07T18:26:02.832Z,5.20
2018-08-07T18:28:31.760Z,5.10
2018-08-07T18:31:00.641Z,4.90
2018-08-07T18:33:29.585Z,4.60
2018-08-07T18:35:58.426Z,4.47
2018-08-07T18:38:27.300Z,4.53
2018-08-07T18:40:56.244Z,4.70
2018-08-07T18:43:25.093Z,4.10
2018-08-07T18:45:54.056Z,3.90
2018-08-07T18:48:22.978Z,4.10
2018-08-07T18:50:51.868Z,3.60
2018-08-07T18:53:20.744Z,4.13
2018-08-07T18:55:49.432Z,4.07
2018-08-07T18:58:18.293Z,4.20
2018-08-07T19:00:47.185Z,4.30
2018-08-07T19:03:16.014Z,5.67
2018-08-07T19:05:44.911Z,5.07
2018-08-07T19:08:13.787Z,4.57
2018-08-07T19:10:43.671Z,3.87
2018-08-07T19:13:12.576Z,3.77
2018-08-07T19:15:41.455Z,3.70
2018-08-07T19:18:10.317Z,4.00
2018-08-07T19:20:39.196Z,3.53
2018-08-07T19:23:08.045Z,3.97
2018-08-07T19:25:36.924Z,3.87
2018-08-07T19:28:05.880Z,4.17
2018-08-07T19:30:34.744Z,3.97
2018-08-07T19:33:03.649Z,3.90
2018-08-07T19:35:32.571Z,4.13
2018-08-07T19:38:01.466Z,4.20
2018-08-07T19:40:30.389Z,4.43
2018-08-07T19:42:59.263Z,4.10
2018-08-07T19:45:28.130Z,4.70
2018-08-07T19:47:57.120Z,4.60
2018-08-07T19:50:25.988Z,5.00
2018-08-07T19:52:54.931Z,5.37
2018-08-07T19:55:53.266Z,4.43
2018-08-07T19:58:21.348Z,4.67
2018-08-07T20:00:49.509Z,5.07
2018-08-07T20:03:17.681Z,5.07
2018-08-07T20:05:46.745Z,5.37
2018-08-07T20:08:14.911Z,5.83
2018-08-07T20:10:43.034Z,5.23
2018-08-07T20:13:12.131Z,5.40
2018-08-07T20:15:40.270Z,5.30
2018-08-07T20:18:08.399Z,5.10
2018-08-07T20:20:36.485Z,5.80
2018-08-07T20:23:06.093Z,4.97
2018-08-07T20:25:35.130Z,5.60
2018-08-07T20:28:03.277Z,5.30
2018-08-07T20:30:31.364Z,5.00
2018-08-07T20:32:59.478Z,5.73
2018-08-07T20:35:27.572Z,4.73
2018-08-07T20:37:55.678Z,5.47
2018-08-07T20:40:25.153Z,5.27
2018-08-07T20:42:54.165Z,5.63
2018-08-07T20:45:22.567Z,5.60
2018-08-07T20:47:50.778Z,5.27
2018-08-07T20:50:20.310Z,6.17
2018-08-07T20:52:48.887Z,5.20
2018-08-07T20:55:17.127Z,6.23
2018-08-07T20:57:45.267Z,5.93
2018-08-07T21:00:19.115Z,6.33
2018-08-07T21:02:47.575Z,6.10
2018-08-07T21:05:15.684Z,6.80
2018-08-07T21:07:43.852Z,8.07
2018-08-07T21:10:13.936Z,6.50
2018-08-07T21:12:42.444Z,6.50
2018-08-07T21:15:11.336Z,7.00
2018-08-07T21:17:39.480Z,7.17
2018-08-07T21:20:09.901Z,6.90
2018-08-07T21:22:38.104Z,6.60
2018-08-07T21:25:09.123Z,6.07
2018-08-07T21:27:37.208Z,6.73
2018-08-07T21:30:09.787Z,6.57
2018-08-07T21:32:37.908Z,5.90
2018-08-07T21:35:06.469Z,6.90
2018-08-07T21:37:34.513Z,6.50
2018-08-07T21:40:02.640Z,6.70
2018-08-07T21:42:30.744Z,7.00
2018-08-07T21:44:58.869Z,7.20
2018-08-07T21:47:26.972Z,7.30
2018-08-07T21:49:55.092Z,7.57
2018-08-07T21:52:23.198Z,8.83
2018-08-07T21:54:51.289Z,8.80
2018-08-07T21:57:19.402Z,9.07
2018-08-07T21:59:47.640Z,8.30
2018-08-07T22:02:15.765Z,8.07
2018-08-07T22:04:43.876Z,7.97
2018-08-07T22:07:11.965Z,8.90
2018-08-07T22:09:40.081Z,8.97
2018-08-07T22:12:08.198Z,8.47
2018-08-07T22:14:36.296Z,9.43
2018-08-07T22:17:04.781Z,8.30
2018-08-07T22:19:32.893Z,10.13
2018-08-07T22:22:01.531Z,15.00
2018-08-07T22:24:29.632Z,19.63
2018-08-07T22:26:57.788Z,18.03
2018-08-07T22:29:25.882Z,17.93
2018-08-07T22:31:53.982Z,18.47
2018-08-07T22:34:22.109Z,16.80
2018-08-07T22:36:50.243Z,16.27
2018-08-07T22:39:18.400Z,16.07
2018-08-07T22:41:46.498Z,13.67
2018-08-07T22:44:20.800Z,12.73
